Time;durP1;ratioP1;P1;durP2;ratioP2;P2;SDS_P1;SDS_P2;PMS_P1;PMS_P2;Temp;Humidity;BMP_temperature;BMP_pressure;BME280_temperature;BME280_humidity;BME280_pressure;Samples;Min_cycle;Max_cycle;Signal;HPM_P1;HPM_P2
2022/06/02 00:01:38;;;;;;;4.00;3.58;;;12.30;63.40;;;;;;4790429;29;20165;-75
2022/06/02 00:04:42;;;;;;;4.68;3.80;;;12.20;63.50;;;;;;4805196;29;20121;-75
2022/06/02 00:07:22;;;;;;;4.82;3.80;;;12.20;63.50;;;;;;4806022;29;20047;-75
2022/06/02 00:10:08;;;;;;;4.03;3.63;;;12.10;63.50;;;;;;4806176;29;20405;-75
2022/06/02 00:12:47;;;;;;;4.88;3.30;;;12.10;64.00;;;;;;4790312;29;20051;-73
2022/06/02 00:15:37;;;;;;;4.53;4.10;;;12.10;63.60;;;;;;4805218;29;20053;-73
2022/06/02 00:18:21;;;;;;;3.83;2.97;;;12.10;63.60;;;;;;4790444;29;20081;-73
2022/06/02 00:20:55;;;;;;;3.83;3.33;;;12.10;63.70;;;;;;4788571;30;20436;-73
2022/06/02 00:23:40;;;;;;;4.15;3.50;;;12.00;63.60;;;;;;4798740;29;20035;-73
2022/06/02 00:26:18;;;;;;;3.88;3.50;;;12.00;63.70;;;;;;4802392;29;20069;-73
2022/06/02 00:29:04;;;;;;;5.00;3.55;;;12.00;63.80;;;;;;4805547;29;20087;-74
2022/06/02 00:31:40;;;;;;;3.75;3.28;;;12.00;63.80;;;;;;4790092;29;20059;-73
2022/06/02 00:34:13;;;;;;;4.10;3.60;;;11.90;63.70;;;;;;4805121;29;20442;-73
2022/06/02 00:36:55;;;;;;;4.22;3.35;;;12.00;63.70;;;;;;4806017;29;20059;-73
2022/06/02 00:39:20;;;;;;;3.75;2.83;;;11.90;63.70;;;;;;4789521;29;20062;-74
2022/06/02 00:41:49;;;;;;;3.60;3.22;;;11.90;63.60;;;;;;4806479;29;20047;-73
2022/06/02 00:44:20;;;;;;;2.95;2.65;;;11.90;63.60;;;;;;4805283;29;20043;-73
2022/06/02 00:46:53;;;;;;;3.88;3.38;;;11.80;63.50;;;;;;4806069;29;20059;-73
2022/06/02 00:49:27;;;;;;;4.10;3.58;;;11.80;63.50;;;;;;4805898;29;20093;-73
2022/06/02 00:52:08;;;;;;;;;;;11.80;63.50;;;;;;4806515;29;20051;-73
2022/06/02 00:57:43;;;;;;;4.55;4.10;;;11.70;63.60;;;;;;4806066;29;20054;-74
2022/06/02 01:00:36;;;;;;;4.05;3.50;;;11.70;63.80;;;;;;4805665;29;20059;-74
2022/06/02 01:03:11;;;;;;;4.40;3.97;;;11.60;63.80;;;;;;4789716;29;20360;-74
2022/06/02 01:06:02;;;;;;;6.72;4.60;;;11.60;63.90;;;;;;4805810;29;20105;-74
2022/06/02 01:09:01;;;;;;;4.47;4.05;;;11.60;64.00;;;;;;4714834;30;20049;-74
2022/06/02 01:11:59;;;;;;;5.05;4.55;;;11.60;64.00;;;;;;4714788;30;20061;-73
2022/06/02 01:15:11;;;;;;;5.22;4.70;;;11.50;64.00;;;;;;4700137;30;20421;-73
2022/06/02 01:18:04;;;;;;;5.57;4.97;;;11.50;64.00;;;;;;4699001;30;20122;-74
2022/06/02 01:20:51;;;;;;;5.60;4.95;;;11.50;64.10;;;;;;4716220;30;20593;-74
2022/06/02 01:23:43;;;;;;;6.05;5.03;;;11.50;64.10;;;;;;4718066;30;20041;-74
2022/06/02 01:26:35;;;;;;;5.15;4.65;;;11.50;64.10;;;;;;4702782;30;20088;-74
2022/06/02 01:29:04;;;;;;;5.28;4.45;;;11.40;64.10;;;;;;4718134;30;20057;-73
2022/06/02 01:31:42;;;;;;;5.57;4.63;;;11.40;64.10;;;;;;4702835;30;20049;-74
2022/06/02 01:34:27;;;;;;;4.80;4.30;;;11.40;64.50;;;;;;4717204;30;20065;-74
2022/06/02 01:37:11;;;;;;;5.05;4.55;;;11.30;64.00;;;;;;4703261;30;20073;-73
2022/06/02 01:39:48;;;;;;;5.15;4.63;;;11.40;64.00;;;;;;4716703;30;20553;-73
2022/06/02 01:42:51;;;;;;;4.93;4.43;;;11.30;64.00;;;;;;4713047;30;20057;-73
2022/06/02 01:45:19;;;;;;;4.07;3.40;;;11.30;63.90;;;;;;4753219;29;20120;-74
2022/06/02 01:47:48;;;;;;;4.53;4.00;;;11.30;64.00;;;;;;4792287;29;20059;-74
2022/06/02 01:50:51;;;;;;;4.28;3.75;;;11.20;63.90;;;;;;4807313;29;20046;-74
2022/06/02 01:53:40;;;;;;;4.13;3.53;;;11.20;63.80;;;;;;4806601;29;20098;-74
2022/06/02 01:56:41;;;;;;;4.32;3.85;;;11.20;63.90;;;;;;4807605;29;20059;-74
2022/06/02 01:59:28;;;;;;;4.30;3.45;;;11.20;64.00;;;;;;4807489;29;20145;-74
2022/06/02 02:02:25;;;;;;;3.25;2.95;;;11.10;63.90;;;;;;4804924;29;20551;-74
2022/06/02 02:05:16;;;;;;;3.95;3.40;;;11.10;64.00;;;;;;4786760;29;20047;-74
2022/06/02 02:07:44;;;;;;;4.13;3.58;;;11.10;64.00;;;;;;4808446;29;20057;-74
2022/06/02 02:10:39;;;;;;;4.43;3.97;;;11.10;64.10;;;;;;4807492;29;20107;-74
2022/06/02 02:13:04;;;;;;;;;;;11.10;64.10;;;;;;4780295;29;20104;-74
2022/06/02 02:15:49;;;;;;;4.30;3.40;;;11.00;63.70;;;;;;4807453;29;19929;-74
2022/06/02 02:18:27;;;;;;;3.97;3.58;;;11.00;64.00;;;;;;4804328;29;20077;-74
2022/06/02 02:20:59;;;;;;;4.35;3.63;;;11.00;64.00;;;;;;4807555;29;20098;-74
2022/06/02 02:23:44;;;;;;;3.40;3.10;;;11.00;64.00;;;;;;4808253;29;20426;-74
2022/06/02 02:26:25;;;;;;;3.63;2.97;;;11.00;63.90;;;;;;4791080;29;20518;-74
2022/06/02 02:28:55;;;;;;;3.95;2.90;;;10.90;63.80;;;;;;4791889;29;20403;-74
2022/06/02 02:31:45;;;;;;;3.05;2.60;;;11.00;63.80;;;;;;4806629;29;20046;-74
2022/06/02 02:34:33;;;;;;;3.42;2.42;;;10.90;63.70;;;;;;4807416;29;20054;-74
2022/06/02 02:37:24;;;;;;;3.88;2.80;;;10.90;63.70;;;;;;4807113;29;20051;-74
2022/06/02 02:39:59;;;;;;;3.20;2.58;;;10.90;63.60;;;;;;4807283;29;20453;-74
2022/06/02 02:42:51;;;;;;;4.55;3.50;;;10.90;63.70;;;;;;4804578;29;20051;-75
2022/06/02 02:46:09;;;;;;;4.35;2.97;;;10.80;63.60;;;;;;4807444;29;20496;-74
2022/06/02 02:48:38;;;;;;;3.97;3.40;;;10.80;63.50;;;;;;4699657;30;20057;-74
2022/06/02 02:51:31;;;;;;;3.53;2.85;;;10.80;63.50;;;;;;4711497;30;20094;-74
2022/06/02 02:54:21;;;;;;;4.55;2.70;;;10.80;63.40;;;;;;4716865;30;20529;-74
2022/06/02 02:57:10;;;;;;;4.05;2.70;;;10.70;63.40;;;;;;4716020;30;20052;-74
2022/06/02 03:00:13;;;;;;;3.60;2.95;;;10.60;63.30;;;;;;4716577;30;20144;-74
2022/06/02 03:03:05;;;;;;;3.92;2.67;;;10.70;63.40;;;;;;4702057;30;20123;-74
2022/06/02 03:05:46;;;;;;;3.35;2.72;;;10.60;63.40;;;;;;4716331;30;20093;-74
2022/06/02 03:08:40;;;;;;;2.92;2.60;;;10.60;63.40;;;;;;4715819;30;20045;-74
2022/06/02 03:11:34;;;;;;;3.00;2.55;;;10.60;63.40;;;;;;4732929;30;20160;-74
2022/06/02 03:14:21;;;;;;;3.17;2.77;;;10.60;63.40;;;;;;4698288;30;20060;-74
2022/06/02 03:16:56;;;;;;;2.63;2.20;;;10.50;63.40;;;;;;4701019;30;20547;-74
2022/06/02 03:19:26;;;;;;;2.80;2.20;;;10.50;63.40;;;;;;4734095;30;20064;-74
2022/06/02 03:21:57;;;;;;;2.80;2.47;;;10.40;63.40;;;;;;4758075;30;20059;-74
2022/06/02 03:24:43;;;;;;;2.60;2.30;;;10.40;63.40;;;;;;4772042;30;20047;-75
2022/06/02 03:27:19;;;;;;;2.53;2.30;;;10.40;63.40;;;;;;4786553;30;20055;-74
2022/06/02 03:30:04;;;;;;;3.10;2.80;;;10.40;63.40;;;;;;4786592;30;20138;-75
2022/06/02 03:32:56;;;;;;;3.50;3.03;;;10.30;63.90;;;;;;4724404;30;20140;-74
2022/06/02 03:35:36;;;;;;;3.20;2.90;;;10.30;63.40;;;;;;4716038;30;20045;-75
2022/06/02 03:38:21;;;;;;;4.15;3.67;;;10.30;63.50;;;;;;4721027;30;20429;-75
2022/06/02 03:41:17;;;;;;;5.03;3.97;;;10.30;63.60;;;;;;4730253;30;20056;-75
2022/06/02 03:44:04;;;;;;;3.80;3.42;;;10.30;63.60;;;;;;4718274;30;20061;-74
2022/06/02 03:46:47;;;;;;;3.83;3.20;;;10.20;63.60;;;;;;4717509;30;20067;-75
2022/06/02 03:49:36;;;;;;;4.40;3.95;;;10.20;63.70;;;;;;4715595;30;20056;-75
2022/06/02 03:52:06;;;;;;;4.47;3.63;;;10.20;63.80;;;;;;4711771;30;20065;-75
2022/06/02 03:54:53;;;;;;;3.92;3.53;;;10.10;63.70;;;;;;4698815;30;20061;-75
2022/06/02 03:57:55;;;;;;;4.57;4.15;;;10.20;63.90;;;;;;4701981;30;20057;-75
2022/06/02 04:00:35;;;;;;;4.28;3.83;;;10.10;63.90;;;;;;4700969;30;20518;-75
2022/06/02 04:03:06;;;;;;;4.30;3.90;;;10.10;64.00;;;;;;4701451;30;20688;-75
2022/06/02 04:05:53;;;;;;;4.30;3.47;;;10.10;64.10;;;;;;4715551;30;20095;-75
2022/06/02 04:08:57;;;;;;;3.85;3.35;;;10.10;64.20;;;;;;4721876;30;20098;-75
2022/06/02 04:13:37;;;;;;;4.38;3.97;;;10.10;64.20;;;;;;4750815;30;20072;-75
2022/06/02 04:14:30;;;;;;;3.80;3.40;;;10.10;64.30;;;;;;4732597;30;20060;-75
2022/06/02 04:17:11;;;;;;;3.95;3.55;;;10.10;64.30;;;;;;4732979;30;20045;-75
2022/06/02 04:23:14;;;;;;;4.57;4.15;;;10.10;64.40;;;;;;4704753;30;20506;-75
2022/06/02 04:26:05;;;;;;;6.38;4.30;;;10.10;64.50;;;;;;4718140;30;20072;-75
2022/06/02 04:28:40;;;;;;;4.75;4.35;;;10.10;64.60;;;;;;4732304;30;20548;-75
2022/06/02 04:31:18;;;;;;;5.25;4.75;;;10.10;64.70;;;;;;4732860;30;20053;-74
2022/06/02 04:33:50;;;;;;;5.05;4.55;;;10.10;64.90;;;;;;4712861;30;20114;-75
2022/06/02 04:36:26;;;;;;;4.75;4.25;;;10.10;65.00;;;;;;4732344;30;20088;-75
2022/06/02 04:39:12;;;;;;;5.85;5.25;;;10.10;65.00;;;;;;4732538;30;20461;-75
2022/06/02 04:41:44;;;;;;;6.13;5.38;;;10.10;65.10;;;;;;4718267;30;20052;-75
2022/06/02 04:44:24;;;;;;;5.68;4.82;;;10.10;65.20;;;;;;4732579;29;20059;-75
2022/06/02 04:47:19;;;;;;;5.82;5.20;;;10.10;65.40;;;;;;4789753;29;20206;-74
2022/06/02 04:50:11;;;;;;;6.70;6.00;;;10.10;65.50;;;;;;4801821;29;20058;-74
2022/06/02 04:52:54;;;;;;;6.25;5.40;;;10.20;65.90;;;;;;4806090;29;20043;-75
2022/06/02 04:55:32;;;;;;;6.72;5.95;;;10.20;66.00;;;;;;4808774;29;20079;-74
2022/06/02 04:58:30;;;;;;;7.90;6.75;;;10.20;66.20;;;;;;4808996;29;20070;-74
2022/06/02 05:01:34;;;;;;;9.73;7.95;;;10.20;66.50;;;;;;4753603;30;20059;-75
2022/06/02 05:04:22;;;;;;;12.10;10.40;;;10.20;66.90;;;;;;4753110;30;20147;-75
2022/06/02 05:07:00;;;;;;;12.32;11.00;;;10.30;67.90;;;;;;4737740;30;20063;-75
2022/06/02 05:09:35;;;;;;;12.07;10.68;;;10.30;68.60;;;;;;4753300;30;20511;-75
2022/06/02 05:12:12;;;;;;;11.80;10.57;;;10.50;70.30;;;;;;4753015;30;20067;-74
2022/06/02 05:14:47;;;;;;;11.55;9.75;;;10.70;71.40;;;;;;4753393;30;20157;-75
2022/06/02 05:17:36;;;;;;;11.48;9.65;;;11.10;72.10;;;;;;4738698;30;20104;-74
2022/06/02 05:20:04;;;;;;;11.25;10.05;;;11.60;72.20;;;;;;4733528;30;20143;-74
2022/06/02 05:22:50;;;;;;;8.48;7.65;;;12.10;71.50;;;;;;4751854;30;20121;-75
2022/06/02 05:25:53;;;;;;;9.65;8.63;;;12.70;70.80;;;;;;4751978;30;20060;-75
2022/06/02 05:28:50;;;;;;;8.95;7.85;;;13.40;69.40;;;;;;4750706;30;20669;-75
2022/06/02 05:31:40;;;;;;;9.18;7.47;;;14.10;68.10;;;;;;4751607;30;20071;-75
2022/06/02 05:34:17;;;;;;;8.50;6.95;;;14.70;66.70;;;;;;4752356;30;20143;-76
2022/06/02 05:37:18;;;;;;;8.10;7.07;;;15.40;65.20;;;;;;4752832;30;20057;-75
2022/06/02 05:40:08;;;;;;;8.80;7.20;;;16.00;63.60;;;;;;4806244;29;20051;-75
2022/06/02 05:43:08;;;;;;;10.70;7.45;;;16.60;62.50;;;;;;4792301;29;20133;-75
2022/06/02 05:45:58;;;;;;;7.82;7.00;;;17.20;61.60;;;;;;4792474;29;20058;-75
2022/06/02 05:48:41;;;;;;;10.35;7.45;;;17.70;61.00;;;;;;4808918;29;20066;-75
2022/06/02 05:51:25;;;;;;;7.05;6.35;;;18.30;59.90;;;;;;4808231;29;20046;-75
2022/06/02 05:54:26;;;;;;;6.05;5.40;;;18.80;58.70;;;;;;4791273;29;20047;-75
2022/06/02 05:57:20;;;;;;;5.38;4.88;;;19.20;57.60;;;;;;4717818;30;20061;-75
2022/06/02 06:00:00;;;;;;;;;;;19.80;56.60;;;;;;4724325;30;20052;-75
2022/06/02 06:02:46;;;;;;;6.28;4.10;;;20.20;56.90;;;;;;4734145;30;19926;-74
2022/06/02 06:05:31;;;;;;;4.55;3.88;;;20.60;55.00;;;;;;4733261;30;20056;-76
2022/06/02 06:08:33;;;;;;;4.55;3.83;;;20.90;53.70;;;;;;4735290;30;20422;-75
2022/06/02 06:11:09;;;;;;;4.55;3.55;;;21.40;53.30;;;;;;4734707;30;20100;-75
2022/06/02 06:13:34;;;;;;;5.07;3.35;;;21.70;52.30;;;;;;4734816;30;20048;-75
2022/06/02 06:16:19;;;;;;;5.47;3.20;;;22.00;51.10;;;;;;4720350;30;20049;-76
2022/06/02 06:18:59;;;;;;;4.57;2.60;;;22.30;50.40;;;;;;4723144;30;20080;-75
2022/06/02 06:22:06;;;;;;;3.97;2.92;;;22.50;49.30;;;;;;4732138;30;20618;-75
2022/06/02 06:25:10;;;;;;;4.20;2.80;;;22.70;49.10;;;;;;4719639;30;20088;-75
2022/06/02 06:27:53;;;;;;;5.05;3.03;;;22.80;48.70;;;;;;4734695;30;20064;-76
2022/06/02 06:30:35;;;;;;;3.40;2.53;;;23.00;48.00;;;;;;4734525;30;20060;-76
2022/06/02 06:33:28;;;;;;;3.08;2.15;;;23.10;47.20;;;;;;4740711;30;20059;-76
2022/06/02 06:36:05;;;;;;;4.03;2.50;;;23.10;46.50;;;;;;4799286;29;20495;-76
2022/06/02 06:38:37;;;;;;;3.20;2.40;;;23.20;46.50;;;;;;4807914;29;20163;-76
2022/06/02 06:41:40;;;;;;;4.13;2.50;;;23.30;46.20;;;;;;4807568;29;20058;-76
2022/06/02 06:44:25;;;;;;;4.10;2.28;;;23.40;45.90;;;;;;4752145;30;20532;-76
2022/06/02 06:47:11;;;;;;;2.75;1.90;;;23.50;46.10;;;;;;4741428;30;20110;-76
2022/06/02 06:49:59;;;;;;;4.45;2.53;;;23.60;45.10;;;;;;4737388;30;20051;-76
2022/06/02 06:52:51;;;;;;;3.13;1.92;;;23.60;44.90;;;;;;4751979;30;20509;-76
2022/06/02 06:55:36;;;;;;;2.58;1.48;;;23.60;44.50;;;;;;4751703;30;20060;-76
2022/06/02 06:58:07;;;;;;;2.97;1.40;;;23.70;44.30;;;;;;4750941;30;20060;-76
2022/06/02 07:00:59;;;;;;;3.17;1.80;;;23.60;43.60;;;;;;4736881;30;20497;-76
2022/06/02 07:03:46;;;;;;;2.90;1.58;;;23.60;44.00;;;;;;4737066;30;20533;-76
2022/06/02 07:06:48;;;;;;;1.77;1.50;;;23.60;43.30;;;;;;4736596;30;20558;-76
2022/06/02 07:09:27;;;;;;;3.00;1.75;;;23.50;43.90;;;;;;4736084;30;20138;-76
2022/06/02 07:14:47;;;;;;;2.85;1.45;;;23.20;43.90;;;;;;4751757;30;20086;-77
2022/06/02 07:17:31;;;;;;;2.55;1.40;;;23.10;43.30;;;;;;4745346;29;20507;-77
2022/06/02 07:20:03;;;;;;;2.97;1.75;;;22.90;43.30;;;;;;4807037;29;20394;-77
2022/06/02 07:22:50;;;;;;;3.92;2.00;;;22.70;43.60;;;;;;4806941;29;20617;-76
2022/06/02 07:25:16;;;;;;;3.88;2.28;;;22.40;43.70;;;;;;4790823;29;20050;-76
2022/06/02 07:28:00;;;;;;;2.13;1.52;;;22.10;43.70;;;;;;4806888;29;20095;-78
2022/06/02 07:30:36;;;;;;;3.05;1.70;;;21.80;44.10;;;;;;4790756;29;20141;-77
2022/06/02 07:33:17;;;;;;;2.90;1.45;;;21.60;44.80;;;;;;4805874;29;20047;-77
2022/06/02 07:35:49;;;;;;;2.55;1.58;;;21.40;44.90;;;;;;4790660;29;20483;-78
2022/06/02 07:38:34;;;;;;;2.35;1.42;;;21.20;44.70;;;;;;4789279;30;20055;-78
2022/06/02 07:41:46;;;;;;;3.67;1.70;;;20.90;45.20;;;;;;4806282;29;20054;-77
2022/06/02 07:44:27;;;;;;;4.40;2.05;;;20.60;46.50;;;;;;4751251;30;20114;-78
2022/06/02 07:47:26;;;;;;;4.82;1.58;;;20.50;47.00;;;;;;4751017;30;20111;-77
2022/06/02 07:50:19;;;;;;;1.83;1.30;;;20.50;47.90;;;;;;4751003;30;20048;-77
2022/06/02 07:53:12;;;;;;;2.08;1.20;;;20.60;47.40;;;;;;4735639;30;20066;-77
2022/06/02 07:56:04;;;;;;;3.13;1.38;;;20.70;47.80;;;;;;4751323;30;20109;-77
2022/06/02 07:58:58;;;;;;;2.03;1.25;;;20.90;47.80;;;;;;4733560;30;20076;-77
2022/06/02 08:01:50;;;;;;;3.30;1.30;;;21.00;48.00;;;;;;4743665;30;20165;-77
2022/06/02 08:04:32;;;;;;;2.17;1.27;;;21.10;46.90;;;;;;4750572;30;20052;-77
2022/06/02 08:07:08;;;;;;;2.50;1.08;;;21.20;46.50;;;;;;4735435;30;20118;-77
2022/06/02 08:10:03;;;;;;;2.67;1.33;;;21.30;46.90;;;;;;4751088;30;20060;-76
2022/06/02 08:12:47;;;;;;;;;;;21.50;46.60;;;;;;4751065;30;20052;-76
2022/06/02 08:15:37;;;;;;;3.60;1.77;;;21.50;46.10;;;;;;4747765;30;19926;-76
2022/06/02 08:18:21;;;;;;;2.47;1.10;;;21.60;46.00;;;;;;4750514;30;20152;-76
2022/06/02 08:21:20;;;;;;;1.30;1.00;;;21.50;45.70;;;;;;4789385;29;20070;-76
2022/06/02 08:24:13;;;;;;;1.95;1.00;;;21.50;45.80;;;;;;4805744;29;20058;-78
2022/06/02 08:26:51;;;;;;;2.80;1.20;;;21.50;46.30;;;;;;4805149;29;20051;-78
2022/06/02 08:29:20;;;;;;;3.25;0.98;;;21.70;46.60;;;;;;4791726;29;20073;-77
2022/06/02 08:32:16;;;;;;;4.13;1.10;;;21.80;45.50;;;;;;4809749;29;20051;-76
2022/06/02 08:35:04;;;;;;;2.65;1.08;;;21.90;45.70;;;;;;4808733;29;20054;-77
2022/06/02 08:37:40;;;;;;;0.93;0.77;;;22.20;45.80;;;;;;4810618;29;20558;-77
2022/06/02 08:40:30;;;;;;;1.63;0.90;;;22.30;45.00;;;;;;4817443;29;20072;-77
2022/06/02 08:43:29;;;;;;;1.83;1.00;;;22.30;44.20;;;;;;4808743;29;20082;-76
2022/06/02 08:46:28;;;;;;;2.40;0.90;;;22.30;44.00;;;;;;4809689;29;20050;-76
2022/06/02 08:49:06;;;;;;;2.22;0.80;;;22.40;44.60;;;;;;4809721;29;20047;-76
2022/06/02 08:51:41;;;;;;;1.95;1.00;;;22.20;44.40;;;;;;4809862;29;20047;-76
2022/06/02 08:55:01;;;;;;;1.92;0.85;;;22.40;44.00;;;;;;4809092;29;20058;-76
2022/06/02 08:57:45;;;;;;;0.82;0.63;;;22.40;43.80;;;;;;4721890;30;20150;-76
2022/06/02 09:00:23;;;;;;;1.48;0.65;;;22.30;43.10;;;;;;4721760;30;20522;-76
2022/06/02 09:03:15;;;;;;;5.55;1.13;;;22.30;43.30;;;;;;4735938;30;20161;-76
2022/06/02 09:05:49;;;;;;;1.63;0.73;;;22.20;43.40;;;;;;4736173;30;20056;-77
2022/06/02 09:08:43;;;;;;;2.35;1.00;;;22.30;42.50;;;;;;4735894;30;20049;-78
2022/06/02 09:11:42;;;;;;;1.52;0.85;;;22.10;41.70;;;;;;4734927;30;20233;-78
2022/06/02 09:14:27;;;;;;;1.35;0.73;;;21.80;42.50;;;;;;4732504;30;20068;-77
2022/06/02 09:16:52;;;;;;;;;;;21.70;43.50;;;;;;4721901;30;20148;-77
2022/06/02 09:19:32;;;;;;;2.40;0.85;;;21.60;43.90;;;;;;4735822;30;20021;-77
2022/06/02 09:22:24;;;;;;;1.67;0.80;;;21.40;43.50;;;;;;4721291;30;20056;-77
2022/06/02 09:24:58;;;;;;;1.42;0.70;;;21.30;43.90;;;;;;4735864;30;20488;-77
2022/06/02 09:28:00;;;;;;;1.55;0.90;;;21.30;44.90;;;;;;4721448;30;20065;-77
2022/06/02 09:31:01;;;;;;;2.55;0.63;;;21.30;45.10;;;;;;4734401;30;20130;-77
2022/06/02 09:34:00;;;;;;;1.33;1.10;;;21.40;45.50;;;;;;4762094;29;20055;-77
2022/06/02 09:36:47;;;;;;;2.25;1.05;;;21.50;44.50;;;;;;4774053;30;20454;-77
2022/06/02 09:39:40;;;;;;;2.20;1.00;;;21.70;44.90;;;;;;4788874;30;20566;-78
2022/06/02 09:42:25;;;;;;;1.92;0.70;;;21.80;44.90;;;;;;4783582;30;20043;-77
2022/06/02 09:45:03;;;;;;;1.65;0.90;;;22.00;42.70;;;;;;4784872;29;20070;-77
2022/06/02 09:47:50;;;;;;;1.95;0.60;;;22.10;42.50;;;;;;4780382;30;20074;-77
2022/06/02 09:50:43;;;;;;;1.92;0.80;;;22.20;42.70;;;;;;4784554;29;20126;-77
2022/06/02 09:53:22;;;;;;;2.25;0.60;;;22.20;43.70;;;;;;4771723;30;20067;-77
2022/06/02 09:56:21;;;;;;;1.13;0.63;;;22.20;44.00;;;;;;4787913;30;20047;-77
2022/06/02 09:59:12;;;;;;;2.72;0.80;;;22.30;44.20;;;;;;4788202;30;20075;-77
2022/06/02 10:01:44;;;;;;;1.52;0.70;;;22.30;43.40;;;;;;4788662;30;20536;-77
2022/06/02 10:04:30;;;;;;;1.48;0.70;;;22.30;43.10;;;;;;4788059;30;20090;-76
2022/06/02 10:06:59;;;;;;;1.35;0.60;;;22.40;42.80;;;;;;4788530;30;20055;-76
2022/06/02 10:09:30;;;;;;;1.35;0.80;;;22.40;43.40;;;;;;4773682;30;20055;-76
2022/06/02 10:15:02;;;;;;;1.70;0.70;;;22.50;43.30;;;;;;4787624;29;20133;-76
2022/06/02 10:17:46;;;;;;;3.33;0.77;;;22.40;43.30;;;;;;4808074;29;20161;-76
2022/06/02 10:20:21;;;;;;;2.75;0.80;;;22.40;43.40;;;;;;4791075;29;20081;-76
2022/06/02 10:22:55;;;;;;;1.65;0.95;;;22.40;43.10;;;;;;4808444;29;20050;-76
2022/06/02 10:25:40;;;;;;;2.28;0.90;;;22.40;43.10;;;;;;4807964;29;20089;-77
2022/06/02 10:28:29;;;;;;;2.65;0.80;;;22.50;43.10;;;;;;4808192;29;20054;-76
2022/06/02 10:31:20;;;;;;;2.58;0.80;;;22.50;43.20;;;;;;4790439;30;20051;-76
2022/06/02 10:34:07;;;;;;;2.45;0.90;;;22.50;43.10;;;;;;4792259;29;20094;-76
2022/06/02 10:37:09;;;;;;;2.53;1.15;;;22.60;43.30;;;;;;4807940;29;20062;-76
2022/06/02 10:39:40;;;;;;;1.00;0.70;;;22.60;43.20;;;;;;4807796;29;20065;-76
2022/06/02 10:42:43;;;;;;;1.88;0.70;;;22.60;43.30;;;;;;4808235;29;20391;-76
2022/06/02 10:45:24;;;;;;;1.65;0.70;;;22.60;43.50;;;;;;4733933;30;20067;-77
2022/06/02 10:48:28;;;;;;;3.40;1.00;;;22.70;43.20;;;;;;4716983;30;20221;-77
2022/06/02 10:51:31;;;;;;;3.15;1.15;;;22.80;43.30;;;;;;4719335;30;20064;-76
2022/06/02 10:54:08;;;;;;;1.30;0.50;;;22.80;42.20;;;;;;4719568;30;20144;-76
2022/06/02 10:57:00;;;;;;;1.65;0.70;;;22.80;42.20;;;;;;4716518;30;20065;-76
2022/06/02 10:59:50;;;;;;;1.65;0.80;;;22.80;42.10;;;;;;4724021;30;20099;-76
2022/06/02 11:02:33;;;;;;;1.73;0.80;;;22.70;42.40;;;;;;4734071;30;20064;-78
2022/06/02 11:05:54;;;;;;;3.35;0.90;;;22.70;42.10;;;;;;4733806;30;20049;-76
2022/06/02 11:08:49;;;;;;;2.42;0.80;;;22.70;43.00;;;;;;4734378;30;20061;-76
2022/06/02 11:11:33;;;;;;;2.35;1.00;;;22.70;42.80;;;;;;4702555;30;20441;-76
2022/06/02 11:14:47;;;;;;;1.02;0.70;;;22.80;43.10;;;;;;4718671;30;20052;-77
2022/06/02 11:17:34;;;;;;;3.50;0.93;;;22.70;43.60;;;;;;4718926;30;20506;-77
2022/06/02 11:20:47;;;;;;;1.60;0.70;;;22.70;42.90;;;;;;4733693;30;20077;-77
2022/06/02 11:23:45;;;;;;;7.32;1.42;;;22.70;42.90;;;;;;4734136;30;20487;-78
2022/06/02 11:27:04;;;;;;;0.82;0.65;;;22.70;42.10;;;;;;4716730;30;20143;-77
2022/06/02 11:29:46;;;;;;;2.58;0.90;;;22.70;42.40;;;;;;4695716;30;20052;-77
2022/06/02 11:32:29;;;;;;;2.42;0.80;;;22.70;42.30;;;;;;4696825;30;20132;-77
2022/06/02 11:35:33;;;;;;;1.47;0.70;;;22.60;41.90;;;;;;4697139;30;20076;-77
2022/06/02 11:38:20;;;;;;;1.75;0.80;;;22.70;42.80;;;;;;4696731;30;20103;-77
2022/06/02 11:40:51;;;;;;;1.00;0.73;;;22.70;42.10;;;;;;4696128;30;20041;-77
2022/06/02 11:43:24;;;;;;;1.25;0.75;;;22.80;42.30;;;;;;4701123;30;20117;-77
2022/06/02 11:46:08;;;;;;;2.80;0.88;;;23.00;42.80;;;;;;4710758;30;20181;-77
2022/06/02 11:48:39;;;;;;;1.75;0.80;;;23.10;42.90;;;;;;4711563;30;20067;-78
2022/06/02 11:51:25;;;;;;;1.63;0.80;;;23.20;42.40;;;;;;4711254;30;20060;-77
2022/06/02 11:54:25;;;;;;;1.38;0.47;;;23.20;42.20;;;;;;4696371;30;20453;-78
2022/06/02 11:56:57;;;;;;;1.20;0.70;;;23.20;42.30;;;;;;4694429;30;20065;-76
2022/06/02 11:59:43;;;;;;;1.67;0.68;;;23.20;41.80;;;;;;4703462;30;20064;-78
2022/06/02 12:02:34;;;;;;;2.38;0.85;;;23.10;40.70;;;;;;4718745;30;20072;-77
2022/06/02 12:05:18;;;;;;;2.33;1.15;;;23.10;41.30;;;;;;4781500;29;20142;-77
2022/06/02 12:07:49;;;;;;;2.33;0.68;;;23.00;40.50;;;;;;4800247;29;20054;-78
2022/06/02 12:10:49;;;;;;;1.98;1.05;;;23.00;40.70;;;;;;4786147;29;20104;-78
2022/06/02 12:13:26;;;;;;;1.85;0.80;;;22.90;41.10;;;;;;4802310;29;20050;-77
2022/06/02 12:16:32;;;;;;;1.58;0.80;;;22.90;41.10;;;;;;4785935;29;20062;-76
2022/06/02 12:19:25;;;;;;;2.83;0.70;;;22.90;42.10;;;;;;4800128;29;20511;-77
2022/06/02 12:22:17;;;;;;;1.65;0.55;;;22.90;42.10;;;;;;4798293;29;20489;-77
2022/06/02 12:25:14;;;;;;;2.95;0.90;;;22.90;42.30;;;;;;4802892;29;20050;-77
2022/06/02 12:28:01;;;;;;;1.45;0.85;;;23.00;42.20;;;;;;4794300;29;20073;-77
2022/06/02 12:30:32;;;;;;;1.65;0.80;;;23.00;41.50;;;;;;4783643;29;20066;-76
2022/06/02 12:33:07;;;;;;;0.80;0.60;;;23.00;41.70;;;;;;4802592;29;20051;-77
2022/06/02 12:35:50;;;;;;;2.70;0.80;;;23.10;42.80;;;;;;4801392;29;20141;-78
2022/06/02 12:38:47;;;;;;;1.92;0.80;;;23.20;43.20;;;;;;4786101;29;20060;-78
2022/06/02 12:41:27;;;;;;;2.33;0.88;;;23.30;43.30;;;;;;4785386;29;20496;-79
2022/06/02 12:44:27;;;;;;;2.28;0.77;;;23.40;42.70;;;;;;4802530;29;20090;-78
2022/06/02 12:47:24;;;;;;;1.40;0.65;;;23.60;42.30;;;;;;4785170;29;20055;-78
2022/06/02 12:50:17;;;;;;;1.48;0.60;;;23.70;41.20;;;;;;4793666;29;20054;-78
2022/06/02 12:53:01;;;;;;;0.60;0.47;;;23.80;41.20;;;;;;4801093;29;20059;-78
2022/06/02 12:55:39;;;;;;;;;;;23.90;41.90;;;;;;4785421;29;20063;-78
2022/06/02 12:58:11;;;;;;;2.20;0.73;;;23.90;41.70;;;;;;4785509;29;20016;-78
2022/06/02 13:01:05;;;;;;;2.55;0.50;;;24.00;40.70;;;;;;4785332;29;20069;-78
2022/06/02 13:03:37;;;;;;;;;;;24.10;40.00;;;;;;4802230;29;20055;-78
2022/06/02 13:06:40;;;;;;;1.83;0.60;;;24.10;40.70;;;;;;4800637;29;19929;-77
2022/06/02 13:09:54;;;;;;;0.95;0.60;;;24.20;40.40;;;;;;4797030;29;20051;-77
2022/06/02 13:12:50;;;;;;;1.95;0.60;;;24.30;40.50;;;;;;4727619;30;20072;-77
2022/06/02 13:15:22;;;;;;;0.73;0.60;;;24.30;39.30;;;;;;4730007;30;20497;-76
2022/06/02 13:17:59;;;;;;;1.83;0.93;;;24.40;39.70;;;;;;4715657;30;20139;-75
2022/06/02 13:20:34;;;;;;;2.17;0.50;;;24.50;38.50;;;;;;4731490;30;20553;-75
2022/06/02 13:23:18;;;;;;;0.98;0.70;;;24.50;39.00;;;;;;4731130;30;20075;-75
2022/06/02 13:26:04;;;;;;;2.67;0.68;;;24.70;39.40;;;;;;4730841;30;20102;-75
2022/06/02 13:29:07;;;;;;;1.58;0.90;;;24.80;39.00;;;;;;4731094;30;20525;-76
2022/06/02 13:32:09;;;;;;;2.50;0.60;;;24.90;39.60;;;;;;4731350;30;20056;-76
2022/06/02 13:34:45;;;;;;;1.33;0.70;;;25.00;39.30;;;;;;4730897;30;20616;-76
2022/06/02 13:37:25;;;;;;;1.33;0.60;;;25.10;39.70;;;;;;4715955;30;20114;-75
2022/06/02 13:40:18;;;;;;;1.15;0.57;;;25.20;39.10;;;;;;4716721;30;20173;-76
2022/06/02 13:42:59;;;;;;;1.33;0.52;;;25.20;38.20;;;;;;4716168;30;20581;-76
2022/06/02 13:46:08;;;;;;;2.17;0.60;;;25.20;39.20;;;;;;4713120;30;20095;-76
2022/06/02 13:48:53;;;;;;;1.10;0.70;;;25.20;38.70;;;;;;4751978;30;20424;-76
2022/06/02 13:51:27;;;;;;;2.50;0.70;;;25.30;39.40;;;;;;4804734;29;20043;-76
2022/06/02 13:57:32;;;;;;;4.00;0.70;;;25.40;38.10;;;;;;4773539;29;20062;-75
2022/06/02 14:00:22;;;;;;;1.42;0.90;;;25.40;39.20;;;;;;4774626;29;20058;-76
2022/06/02 14:03:28;;;;;;;1.92;0.70;;;25.30;39.10;;;;;;4803363;29;20058;-76
2022/06/02 14:06:25;;;;;;;1.33;0.50;;;25.40;39.50;;;;;;4723919;30;20063;-75
2022/06/02 14:09:28;;;;;;;2.35;0.85;;;25.50;38.90;;;;;;4695438;30;20069;-76
2022/06/02 14:12:19;;;;;;;2.10;0.65;;;25.50;37.60;;;;;;4695432;30;20058;-76
2022/06/02 14:14:56;;;;;;;1.95;0.63;;;25.40;36.80;;;;;;4678981;30;20077;-76
2022/06/02 14:17:31;;;;;;;1.65;0.50;;;25.30;36.70;;;;;;4687242;30;20490;-76
2022/06/02 14:20:32;;;;;;;1.40;0.70;;;25.30;36.80;;;;;;4695615;30;20061;-76
2022/06/02 14:23:00;;;;;;;1.20;0.50;;;25.30;38.80;;;;;;4695730;30;20065;-76
2022/06/02 14:25:28;;;;;;;1.13;0.50;;;25.30;37.80;;;;;;4695168;30;20065;-76
2022/06/02 14:28:03;;;;;;;1.33;0.55;;;25.40;38.50;;;;;;4694559;30;20064;-75
2022/06/02 14:30:52;;;;;;;1.55;0.60;;;25.40;39.70;;;;;;4681070;30;20454;-76
2022/06/02 14:33:40;;;;;;;1.67;0.63;;;25.50;39.90;;;;;;4694722;30;20057;-74
2022/06/02 14:36:19;;;;;;;0.80;0.57;;;25.60;39.30;;;;;;4695226;30;20088;-75
2022/06/02 14:38:59;;;;;;;1.25;0.70;;;25.80;39.60;;;;;;4676892;30;20073;-75
2022/06/02 14:42:00;;;;;;;2.13;0.70;;;25.80;39.00;;;;;;4747771;30;20502;-76